sensor_id;sensor_type;location;lat;lon;timestamp;temperature;humidity
51825;DHT22;37879;52.986;6.282;2024-01-10T00:01:33;-5.30;99.90
51825;DHT22;37879;52.986;6.282;2024-01-10T00:03:59;-4.30;99.90
51825;DHT22;37879;52.986;6.282;2024-01-10T00:06:25;-4.00;99.90
51825;DHT22;37879;52.986;6.282;2024-01-10T00:08:51;-4.40;99.90
51825;DHT22;37879;52.986;6.282;2024-01-10T00:11:16;-4.10;99.90
51825;DHT22;37879;52.986;6.282;2024-01-10T00:13:42;-3.90;99.90
51825;DHT22;37879;52.986;6.282;2024-01-10T00:16:08;-2.60;99.90
51825;DHT22;37879;52.986;6.282;2024-01-10T00:18:34;-4.00;99.90
51825;DHT22;37879;52.986;6.282;2024-01-10T00:21:00;-3.60;99.90
51825;DHT22;37879;52.986;6.282;2024-01-10T00:23:26;-2.90;99.90
51825;DHT22;37879;52.986;6.282;2024-01-10T00:25:51;-4.10;99.90
51825;DHT22;37879;52.986;6.282;2024-01-10T00:28:17;-4.10;99.90
51825;DHT22;37879;52.986;6.282;2024-01-10T00:30:44;-4.00;99.90
51825;DHT22;37879;52.986;6.282;2024-01-10T00:33:10;-4.10;99.90
51825;DHT22;37879;52.986;6.282;2024-01-10T00:35:37;-3.90;99.90
51825;DHT22;37879;52.986;6.282;2024-01-10T00:38:03;-4.10;99.90
51825;DHT22;37879;52.986;6.282;2024-01-10T00:40:29;-4.00;99.90
51825;DHT22;37879;52.986;6.282;2024-01-10T00:42:54;-3.50;99.90
51825;DHT22;37879;52.986;6.282;2024-01-10T00:45:20;-4.00;99.90
51825;DHT22;37879;52.986;6.282;2024-01-10T00:47:48;-4.00;99.90
51825;DHT22;37879;52.986;6.282;2024-01-10T00:50:14;-2.90;99.90
51825;DHT22;37879;52.986;6.282;2024-01-10T00:52:39;-4.00;99.90
51825;DHT22;37879;52.986;6.282;2024-01-10T00:55:05;-4.90;99.90
51825;DHT22;37879;52.986;6.282;2024-01-10T00:57:31;-3.90;99.90
51825;DHT22;37879;52.986;6.282;2024-01-10T00:59:57;-4.20;99.90
51825;DHT22;37879;52.986;6.282;2024-01-10T01:02:22;-4.00;99.90
51825;DHT22;37879;52.986;6.282;2024-01-10T01:04:48;-3.50;99.90
51825;DHT22;37879;52.986;6.282;2024-01-10T01:09:40;-4.10;99.90
51825;DHT22;37879;52.986;6.282;2024-01-10T01:12:06;-4.40;99.90
51825;DHT22;37879;52.986;6.282;2024-01-10T01:14:31;-3.50;99.90
51825;DHT22;37879;52.986;6.282;2024-01-10T01:16:57;-4.30;99.90
51825;DHT22;37879;52.986;6.282;2024-01-10T01:19:23;-4.30;99.90
51825;DHT22;37879;52.986;6.282;2024-01-10T01:21:48;-4.50;99.90
51825;DHT22;37879;52.986;6.282;2024-01-10T01:24:14;-4.20;99.90
51825;DHT22;37879;52.986;6.282;2024-01-10T01:26:40;-4.50;99.90
51825;DHT22;37879;52.986;6.282;2024-01-10T01:29:05;-3.90;99.90
51825;DHT22;37879;52.986;6.282;2024-01-10T01:31:31;-4.90;99.90
51825;DHT22;37879;52.986;6.282;2024-01-10T01:33:57;-4.40;99.90
51825;DHT22;37879;52.986;6.282;2024-01-10T01:36:23;-3.40;99.90
51825;DHT22;37879;52.986;6.282;2024-01-10T01:38:48;-4.50;99.90
51825;DHT22;37879;52.986;6.282;2024-01-10T01:41:14;-4.60;99.90
51825;DHT22;37879;52.986;6.282;2024-01-10T01:43:40;-3.10;99.90
51825;DHT22;37879;52.986;6.282;2024-01-10T01:46:07;-4.40;99.90
51825;DHT22;37879;52.986;6.282;2024-01-10T01:48:33;-4.50;99.90
51825;DHT22;37879;52.986;6.282;2024-01-10T01:51:05;-6.60;99.90
51825;DHT22;37879;52.986;6.282;2024-01-10T01:53:31;-4.60;99.90
51825;DHT22;37879;52.986;6.282;2024-01-10T01:55:57;-4.60;99.90
51825;DHT22;37879;52.986;6.282;2024-01-10T01:58:25;-4.60;99.90
51825;DHT22;37879;52.986;6.282;2024-01-10T02:00:52;-4.70;99.90
51825;DHT22;37879;52.986;6.282;2024-01-10T02:05:46;-6.00;99.90
51825;DHT22;37879;52.986;6.282;2024-01-10T02:08:12;-3.00;99.90
51825;DHT22;37879;52.986;6.282;2024-01-10T02:10:37;-4.80;99.90
51825;DHT22;37879;52.986;6.282;2024-01-10T02:13:03;-4.40;99.90
51825;DHT22;37879;52.986;6.282;2024-01-10T02:15:29;-4.70;99.90
51825;DHT22;37879;52.986;6.282;2024-01-10T02:17:55;-4.80;99.90
51825;DHT22;37879;52.986;6.282;2024-01-10T02:20:21;-2.80;99.90
51825;DHT22;37879;52.986;6.282;2024-01-10T02:25:14;-3.20;99.90
51825;DHT22;37879;52.986;6.282;2024-01-10T02:27:41;-4.80;99.90
51825;DHT22;37879;52.986;6.282;2024-01-10T02:30:08;-4.80;99.90
51825;DHT22;37879;52.986;6.282;2024-01-10T02:32:34;-4.90;99.90
51825;DHT22;37879;52.986;6.282;2024-01-10T02:35:01;-2.80;99.90
51825;DHT22;37879;52.986;6.282;2024-01-10T02:37:26;-6.30;99.90
51825;DHT22;37879;52.986;6.282;2024-01-10T02:39:52;-5.50;99.90
51825;DHT22;37879;52.986;6.282;2024-01-10T02:42:18;-4.70;99.90
51825;DHT22;37879;52.986;6.282;2024-01-10T02:44:44;-4.70;99.90
51825;DHT22;37879;52.986;6.282;2024-01-10T02:47:11;-4.70;99.90
51825;DHT22;37879;52.986;6.282;2024-01-10T02:49:37;-4.90;99.90
51825;DHT22;37879;52.986;6.282;2024-01-10T02:52:03;-4.50;99.90
51825;DHT22;37879;52.986;6.282;2024-01-10T02:54:29;-2.40;99.90
51825;DHT22;37879;52.986;6.282;2024-01-10T02:56:54;-4.60;99.90
51825;DHT22;37879;52.986;6.282;2024-01-10T02:59:20;-4.80;99.90
51825;DHT22;37879;52.986;6.282;2024-01-10T03:01:46;-4.80;99.90
51825;DHT22;37879;52.986;6.282;2024-01-10T03:04:12;-4.90;99.90
51825;DHT22;37879;52.986;6.282;2024-01-10T03:06:37;-5.10;99.90
51825;DHT22;37879;52.986;6.282;2024-01-10T03:09:03;-5.00;99.90
51825;DHT22;37879;52.986;6.282;2024-01-10T03:11:29;-4.80;99.90
51825;DHT22;37879;52.986;6.282;2024-01-10T03:14:04;-4.90;99.90
51825;DHT22;37879;52.986;6.282;2024-01-10T03:16:32;-4.10;99.90
51825;DHT22;37879;52.986;6.282;2024-01-10T03:18:58;-4.60;99.90
51825;DHT22;37879;52.986;6.282;2024-01-10T03:21:24;-5.10;99.90
51825;DHT22;37879;52.986;6.282;2024-01-10T03:23:53;-5.00;99.90
51825;DHT22;37879;52.986;6.282;2024-01-10T03:26:18;-4.00;99.90
51825;DHT22;37879;52.986;6.282;2024-01-10T03:28:44;-4.90;99.90
51825;DHT22;37879;52.986;6.282;2024-01-10T03:31:13;-4.70;99.90
51825;DHT22;37879;52.986;6.282;2024-01-10T03:33:38;-4.90;99.90
51825;DHT22;37879;52.986;6.282;2024-01-10T03:36:05;-4.50;99.90
51825;DHT22;37879;52.986;6.282;2024-01-10T03:38:31;-7.60;99.90
51825;DHT22;37879;52.986;6.282;2024-01-10T03:40:56;-5.00;99.90
51825;DHT22;37879;52.986;6.282;2024-01-10T03:43:22;-5.20;99.90
51825;DHT22;37879;52.986;6.282;2024-01-10T03:45:48;-5.00;99.90
51825;DHT22;37879;52.986;6.282;2024-01-10T03:48:13;-6.00;99.90
51825;DHT22;37879;52.986;6.282;2024-01-10T03:50:39;-5.00;99.90
51825;DHT22;37879;52.986;6.282;2024-01-10T03:53:05;-3.90;99.90
51825;DHT22;37879;52.986;6.282;2024-01-10T03:55:31;-3.90;99.90
51825;DHT22;37879;52.986;6.282;2024-01-10T03:57:57;-4.90;99.90
51825;DHT22;37879;52.986;6.282;2024-01-10T04:00:23;-4.90;99.90
51825;DHT22;37879;52.986;6.282;2024-01-10T04:05:15;-5.80;99.90
51825;DHT22;37879;52.986;6.282;2024-01-10T04:07:41;-5.10;99.90
51825;DHT22;37879;52.986;6.282;2024-01-10T04:10:10;-5.10;99.90
51825;DHT22;37879;52.986;6.282;2024-01-10T04:12:45;-5.10;99.90
51825;DHT22;37879;52.986;6.282;2024-01-10T04:15:12;-4.90;99.90
51825;DHT22;37879;52.986;6.282;2024-01-10T04:17:38;-5.00;99.90
51825;DHT22;37879;52.986;6.282;2024-01-10T04:20:04;-5.40;99.90
51825;DHT22;37879;52.986;6.282;2024-01-10T04:22:30;-5.30;99.90
51825;DHT22;37879;52.986;6.282;2024-01-10T04:25:00;-4.10;99.90
51825;DHT22;37879;52.986;6.282;2024-01-10T04:27:26;-5.00;99.90
51825;DHT22;37879;52.986;6.282;2024-01-10T04:29:53;-6.40;99.90
51825;DHT22;37879;52.986;6.282;2024-01-10T04:32:18;-4.70;99.90
51825;DHT22;37879;52.986;6.282;2024-01-10T04:34:44;-4.80;99.90
51825;DHT22;37879;52.986;6.282;2024-01-10T04:37:10;-5.00;99.90
51825;DHT22;37879;52.986;6.282;2024-01-10T04:39:36;-5.50;99.90
51825;DHT22;37879;52.986;6.282;2024-01-10T04:42:03;-4.70;99.90
51825;DHT22;37879;52.986;6.282;2024-01-10T04:44:29;-5.40;99.90
51825;DHT22;37879;52.986;6.282;2024-01-10T04:46:55;-4.90;99.90
51825;DHT22;37879;52.986;6.282;2024-01-10T04:49:21;-5.00;99.90
51825;DHT22;37879;52.986;6.282;2024-01-10T04:51:47;-3.20;99.90
51825;DHT22;37879;52.986;6.282;2024-01-10T04:54:13;-4.90;99.90
51825;DHT22;37879;52.986;6.282;2024-01-10T04:56:38;-4.10;99.90
51825;DHT22;37879;52.986;6.282;2024-01-10T04:59:04;-3.50;99.90
51825;DHT22;37879;52.986;6.282;2024-01-10T05:01:31;-4.80;99.90
51825;DHT22;37879;52.986;6.282;2024-01-10T05:03:57;-5.60;99.90
51825;DHT22;37879;52.986;6.282;2024-01-10T05:06:23;-6.30;99.90
51825;DHT22;37879;52.986;6.282;2024-01-10T05:08:49;-5.10;99.90
51825;DHT22;37879;52.986;6.282;2024-01-10T05:11:15;-5.00;99.90
51825;DHT22;37879;52.986;6.282;2024-01-10T05:13:42;-3.80;99.90
51825;DHT22;37879;52.986;6.282;2024-01-10T05:16:08;-4.70;99.90
51825;DHT22;37879;52.986;6.282;2024-01-10T05:18:34;-5.30;99.90
51825;DHT22;37879;52.986;6.282;2024-01-10T05:21:00;-4.80;99.90
51825;DHT22;37879;52.986;6.282;2024-01-10T05:23:26;-5.20;99.90
51825;DHT22;37879;52.986;6.282;2024-01-10T05:25:53;-5.00;99.90
51825;DHT22;37879;52.986;6.282;2024-01-10T05:28:19;-3.20;99.90
51825;DHT22;37879;52.986;6.282;2024-01-10T05:30:45;-5.00;99.90
51825;DHT22;37879;52.986;6.282;2024-01-10T05:33:11;-6.00;99.90
51825;DHT22;37879;52.986;6.282;2024-01-10T05:35:38;-5.10;99.90
51825;DHT22;37879;52.986;6.282;2024-01-10T05:38:04;-4.30;99.90
51825;DHT22;37879;52.986;6.282;2024-01-10T05:40:30;-5.30;99.90
51825;DHT22;37879;52.986;6.282;2024-01-10T05:42:57;-5.30;99.90
51825;DHT22;37879;52.986;6.282;2024-01-10T05:45:25;-5.30;99.90
51825;DHT22;37879;52.986;6.282;2024-01-10T05:47:51;-4.20;99.90
51825;DHT22;37879;52.986;6.282;2024-01-10T05:50:17;-5.00;99.90
51825;DHT22;37879;52.986;6.282;2024-01-10T05:52:43;-4.90;99.90
51825;DHT22;37879;52.986;6.282;2024-01-10T05:55:09;-5.10;99.90
51825;DHT22;37879;52.986;6.282;2024-01-10T05:57:38;-3.80;99.90
51825;DHT22;37879;52.986;6.282;2024-01-10T06:00:05;-5.10;99.90
51825;DHT22;37879;52.986;6.282;2024-01-10T06:02:41;-5.60;99.90
51825;DHT22;37879;52.986;6.282;2024-01-10T06:05:10;-5.30;99.90
51825;DHT22;37879;52.986;6.282;2024-01-10T06:07:37;-4.00;99.90
51825;DHT22;37879;52.986;6.282;2024-01-10T06:10:03;-4.60;99.90
51825;DHT22;37879;52.986;6.282;2024-01-10T06:12:29;-4.90;99.90
51825;DHT22;37879;52.986;6.282;2024-01-10T06:14:55;-4.90;99.90
51825;DHT22;37879;52.986;6.282;2024-01-10T06:17:21;-5.00;99.90
51825;DHT22;37879;52.986;6.282;2024-01-10T06:19:47;-4.70;99.90
51825;DHT22;37879;52.986;6.282;2024-01-10T06:22:13;-5.10;99.90
51825;DHT22;37879;52.986;6.282;2024-01-10T06:24:39;-3.30;99.90
51825;DHT22;37879;52.986;6.282;2024-01-10T06:27:05;-4.80;99.90
51825;DHT22;37879;52.986;6.282;2024-01-10T06:29:31;-4.40;99.90
51825;DHT22;37879;52.986;6.282;2024-01-10T06:34:24;-4.40;99.90
51825;DHT22;37879;52.986;6.282;2024-01-10T06:36:50;-5.00;99.90
51825;DHT22;37879;52.986;6.282;2024-01-10T06:39:15;-4.40;99.90
51825;DHT22;37879;52.986;6.282;2024-01-10T06:41:48;-5.10;99.90
51825;DHT22;37879;52.986;6.282;2024-01-10T06:44:14;-5.40;99.90
51825;DHT22;37879;52.986;6.282;2024-01-10T06:46:40;-5.40;99.90
51825;DHT22;37879;52.986;6.282;2024-01-10T06:49:05;-5.20;99.90
51825;DHT22;37879;52.986;6.282;2024-01-10T06:51:33;-5.80;99.90
51825;DHT22;37879;52.986;6.282;2024-01-10T06:53:58;-5.20;99.90
51825;DHT22;37879;52.986;6.282;2024-01-10T06:56:34;-4.80;99.90
51825;DHT22;37879;52.986;6.282;2024-01-10T06:59:00;-6.00;99.90
51825;DHT22;37879;52.986;6.282;2024-01-10T07:01:26;-4.60;99.90
51825;DHT22;37879;52.986;6.282;2024-01-10T07:03:53;-5.20;99.90
51825;DHT22;37879;52.986;6.282;2024-01-10T07:06:22;-4.90;99.90
51825;DHT22;37879;52.986;6.282;2024-01-10T07:08:49;-4.20;99.90
51825;DHT22;37879;52.986;6.282;2024-01-10T07:11:16;-4.90;99.90
51825;DHT22;37879;52.986;6.282;2024-01-10T07:13:42;-4.70;99.90
51825;DHT22;37879;52.986;6.282;2024-01-10T07:16:09;-5.40;99.90
51825;DHT22;37879;52.986;6.282;2024-01-10T07:18:35;-3.50;99.90
51825;DHT22;37879;52.986;6.282;2024-01-10T07:21:00;-5.10;99.90
51825;DHT22;37879;52.986;6.282;2024-01-10T07:23:26;-5.10;99.90
51825;DHT22;37879;52.986;6.282;2024-01-10T07:25:56;-5.40;99.90
51825;DHT22;37879;52.986;6.282;2024-01-10T07:28:21;-4.90;99.90
51825;DHT22;37879;52.986;6.282;2024-01-10T07:30:47;-5.00;99.90
51825;DHT22;37879;52.986;6.282;2024-01-10T07:33:13;-5.40;99.90
51825;DHT22;37879;52.986;6.282;2024-01-10T07:35:39;-4.90;99.90
51825;DHT22;37879;52.986;6.282;2024-01-10T07:38:05;-4.80;99.90
51825;DHT22;37879;52.986;6.282;2024-01-10T07:40:34;-4.70;99.90
51825;DHT22;37879;52.986;6.282;2024-01-10T07:43:00;-4.70;99.90
51825;DHT22;37879;52.986;6.282;2024-01-10T07:45:26;-4.00;99.90
51825;DHT22;37879;52.986;6.282;2024-01-10T07:47:52;-5.70;99.90
51825;DHT22;37879;52.986;6.282;2024-01-10T07:50:18;-5.20;99.90
51825;DHT22;37879;52.986;6.282;2024-01-10T07:52:45;-4.80;99.90
51825;DHT22;37879;52.986;6.282;2024-01-10T07:55:11;-5.00;99.90
51825;DHT22;37879;52.986;6.282;2024-01-10T07:57:38;-2.20;99.90
51825;DHT22;37879;52.986;6.282;2024-01-10T08:00:05;-5.70;99.90
51825;DHT22;37879;52.986;6.282;2024-01-10T08:02:31;-5.30;99.90
51825;DHT22;37879;52.986;6.282;2024-01-10T08:05:00;-3.20;99.90
51825;DHT22;37879;52.986;6.282;2024-01-10T08:07:26;-5.00;99.90
51825;DHT22;37879;52.986;6.282;2024-01-10T08:09:52;-3.60;99.90
51825;DHT22;37879;52.986;6.282;2024-01-10T08:12:18;-5.10;99.90
51825;DHT22;37879;52.986;6.282;2024-01-10T08:14:44;-4.90;99.90
51825;DHT22;37879;52.986;6.282;2024-01-10T08:17:15;-5.10;99.90
51825;DHT22;37879;52.986;6.282;2024-01-10T08:19:41;-5.40;99.90
51825;DHT22;37879;52.986;6.282;2024-01-10T08:22:07;-4.90;99.90
51825;DHT22;37879;52.986;6.282;2024-01-10T08:24:33;-4.90;99.90
51825;DHT22;37879;52.986;6.282;2024-01-10T08:26:59;-4.90;99.90
51825;DHT22;37879;52.986;6.282;2024-01-10T08:29:25;-4.90;99.90
51825;DHT22;37879;52.986;6.282;2024-01-10T08:31:55;-4.70;99.90
51825;DHT22;37879;52.986;6.282;2024-01-10T08:34:22;-7.00;99.90
51825;DHT22;37879;52.986;6.282;2024-01-10T08:36:48;-4.60;99.90
51825;DHT22;37879;52.986;6.282;2024-01-10T08:39:19;-4.20;99.90
51825;DHT22;37879;52.986;6.282;2024-01-10T08:41:45;-4.80;99.90
51825;DHT22;37879;52.986;6.282;2024-01-10T08:44:11;-4.70;99.90
51825;DHT22;37879;52.986;6.282;2024-01-10T08:46:37;-5.40;99.90
51825;DHT22;37879;52.986;6.282;2024-01-10T08:49:03;-4.50;99.90
51825;DHT22;37879;52.986;6.282;2024-01-10T08:51:29;-4.60;99.90
51825;DHT22;37879;52.986;6.282;2024-01-10T08:53:55;-4.60;99.90
51825;DHT22;37879;52.986;6.282;2024-01-10T08:56:22;-4.30;99.90
51825;DHT22;37879;52.986;6.282;2024-01-10T08:58:48;-4.50;99.90
51825;DHT22;37879;52.986;6.282;2024-01-10T09:01:13;-4.30;99.90
51825;DHT22;37879;52.986;6.282;2024-01-10T09:03:39;-4.20;99.90
51825;DHT22;37879;52.986;6.282;2024-01-10T09:06:05;-4.50;99.90
51825;DHT22;37879;52.986;6.282;2024-01-10T09:08:33;-4.20;99.90
51825;DHT22;37879;52.986;6.282;2024-01-10T09:10:59;-4.40;99.90
51825;DHT22;37879;52.986;6.282;2024-01-10T09:13:25;-3.50;99.90
51825;DHT22;37879;52.986;6.282;2024-01-10T09:15:50;-3.10;99.90
51825;DHT22;37879;52.986;6.282;2024-01-10T09:18:16;-3.60;99.90
51825;DHT22;37879;52.986;6.282;2024-01-10T09:20:42;-3.40;99.90
51825;DHT22;37879;52.986;6.282;2024-01-10T09:23:07;-4.10;99.90
51825;DHT22;37879;52.986;6.282;2024-01-10T09:25:33;-4.10;99.90
51825;DHT22;37879;52.986;6.282;2024-01-10T09:27:59;-4.80;99.90
51825;DHT22;37879;52.986;6.282;2024-01-10T09:30:24;-3.90;99.90
51825;DHT22;37879;52.986;6.282;2024-01-10T09:32:50;-3.10;99.90
51825;DHT22;37879;52.986;6.282;2024-01-10T09:35:16;-3.90;99.90
51825;DHT22;37879;52.986;6.282;2024-01-10T09:37:43;-4.00;99.90
51825;DHT22;37879;52.986;6.282;2024-01-10T09:40:11;-3.90;99.90
51825;DHT22;37879;52.986;6.282;2024-01-10T09:42:39;-6.00;99.90
51825;DHT22;37879;52.986;6.282;2024-01-10T09:45:05;-3.90;99.90
51825;DHT22;37879;52.986;6.282;2024-01-10T09:47:32;-3.90;99.90
51825;DHT22;37879;52.986;6.282;2024-01-10T09:49:58;-3.80;99.90
51825;DHT22;37879;52.986;6.282;2024-01-10T09:52:27;-3.50;99.90
51825;DHT22;37879;52.986;6.282;2024-01-10T09:54:57;-3.70;99.90
51825;DHT22;37879;52.986;6.282;2024-01-10T09:57:26;-3.10;99.90
51825;DHT22;37879;52.986;6.282;2024-01-10T09:59:53;-5.50;99.90
51825;DHT22;37879;52.986;6.282;2024-01-10T10:02:23;-3.50;99.90
51825;DHT22;37879;52.986;6.282;2024-01-10T10:05:18;-3.50;99.90
51825;DHT22;37879;52.986;6.282;2024-01-10T10:07:48;-3.90;99.90
51825;DHT22;37879;52.986;6.282;2024-01-10T10:10:14;-2.20;99.90
51825;DHT22;37879;52.986;6.282;2024-01-10T10:12:51;-3.30;99.90
51825;DHT22;37879;52.986;6.282;2024-01-10T10:15:19;-5.40;99.90
51825;DHT22;37879;52.986;6.282;2024-01-10T10:17:48;-3.30;99.90
51825;DHT22;37879;52.986;6.282;2024-01-10T10:20:22;-3.50;99.90
51825;DHT22;37879;52.986;6.282;2024-01-10T10:23:07;-3.20;99.90
51825;DHT22;37879;52.986;6.282;2024-01-10T10:25:45;-3.60;99.90
51825;DHT22;37879;52.986;6.282;2024-01-10T10:28:11;-2.70;99.90
51825;DHT22;37879;52.986;6.282;2024-01-10T10:30:37;-3.20;99.90
51825;DHT22;37879;52.986;6.282;2024-01-10T10:33:03;-2.90;99.90
51825;DHT22;37879;52.986;6.282;2024-01-10T10:35:29;-3.10;99.90
51825;DHT22;37879;52.986;6.282;2024-01-10T10:37:55;-2.80;99.90
51825;DHT22;37879;52.986;6.282;2024-01-10T10:40:21;-3.10;99.90
51825;DHT22;37879;52.986;6.282;2024-01-10T10:42:57;-3.80;99.90
51825;DHT22;37879;52.986;6.282;2024-01-10T10:45:23;-2.60;99.90
51825;DHT22;37879;52.986;6.282;2024-01-10T10:47:59;-3.30;99.90
51825;DHT22;37879;52.986;6.282;2024-01-10T10:50:32;-2.80;99.90
51825;DHT22;37879;52.986;6.282;2024-01-10T10:52:59;-2.90;99.90
51825;DHT22;37879;52.986;6.282;2024-01-10T10:55:26;-2.90;99.90
51825;DHT22;37879;52.986;6.282;2024-01-10T10:57:53;-3.00;99.90
51825;DHT22;37879;52.986;6.282;2024-01-10T11:00:22;-2.40;99.90
51825;DHT22;37879;52.986;6.282;2024-01-10T11:02:56;-2.70;99.90
51825;DHT22;37879;52.986;6.282;2024-01-10T11:05:25;-2.80;99.90
51825;DHT22;37879;52.986;6.282;2024-01-10T11:07:51;-2.60;99.90
51825;DHT22;37879;52.986;6.282;2024-01-10T11:10:30;-2.70;99.90
51825;DHT22;37879;52.986;6.282;2024-01-10T11:13:29;-2.30;99.90
51825;DHT22;37879;52.986;6.282;2024-01-10T11:24:14;-2.30;99.90
51825;DHT22;37879;52.986;6.282;2024-01-10T11:26:40;-2.30;99.90
51825;DHT22;37879;52.986;6.282;2024-01-10T11:29:06;-2.40;99.90
51825;DHT22;37879;52.986;6.282;2024-01-10T11:31:32;-0.70;99.90
51825;DHT22;37879;52.986;6.282;2024-01-10T11:34:00;-2.10;99.90
51825;DHT22;37879;52.986;6.282;2024-01-10T11:36:26;-2.30;99.90
51825;DHT22;37879;52.986;6.282;2024-01-10T11:49:08;-1.90;99.90
51825;DHT22;37879;52.986;6.282;2024-01-10T11:51:37;-0.90;99.90
51825;DHT22;37879;52.986;6.282;2024-01-10T11:54:03;-1.70;99.90
51825;DHT22;37879;52.986;6.282;2024-01-10T11:56:39;-0.20;99.90
51825;DHT22;37879;52.986;6.282;2024-01-10T11:59:15;-1.70;99.90
51825;DHT22;37879;52.986;6.282;2024-01-10T12:01:42;-1.60;99.90
51825;DHT22;37879;52.986;6.282;2024-01-10T12:04:08;-1.60;99.90
51825;DHT22;37879;52.986;6.282;2024-01-10T12:06:37;-1.40;99.90
51825;DHT22;37879;52.986;6.282;2024-01-10T12:09:03;-1.60;99.90
51825;DHT22;37879;52.986;6.282;2024-01-10T12:11:40;-1.40;99.90
51825;DHT22;37879;52.986;6.282;2024-01-10T12:14:08;-1.50;99.90
51825;DHT22;37879;52.986;6.282;2024-01-10T12:16:34;-1.90;99.90
51825;DHT22;37879;52.986;6.282;2024-01-10T12:19:00;-1.50;99.90
51825;DHT22;37879;52.986;6.282;2024-01-10T12:21:26;-1.40;99.90
51825;DHT22;37879;52.986;6.282;2024-01-10T12:23:52;-1.30;99.90
51825;DHT22;37879;52.986;6.282;2024-01-10T12:26:18;-0.90;99.90
51825;DHT22;37879;52.986;6.282;2024-01-10T12:28:58;-1.70;99.90
51825;DHT22;37879;52.986;6.282;2024-01-10T12:31:27;-1.40;99.90
51825;DHT22;37879;52.986;6.282;2024-01-10T12:33:57;-1.40;99.90
51825;DHT22;37879;52.986;6.282;2024-01-10T12:36:23;-1.10;99.90
51825;DHT22;37879;52.986;6.282;2024-01-10T12:38:49;-1.50;99.90
51825;DHT22;37879;52.986;6.282;2024-01-10T12:41:18;-1.40;99.90
51825;DHT22;37879;52.986;6.282;2024-01-10T12:43:51;-0.60;99.90
51825;DHT22;37879;52.986;6.282;2024-01-10T12:46:17;-1.30;99.90
51825;DHT22;37879;52.986;6.282;2024-01-10T12:48:43;-1.00;99.90
51825;DHT22;37879;52.986;6.282;2024-01-10T12:51:11;-1.30;99.90
51825;DHT22;37879;52.986;6.282;2024-01-10T12:56:04;-1.20;99.90
51825;DHT22;37879;52.986;6.282;2024-01-10T12:58:31;-1.30;99.90
51825;DHT22;37879;52.986;6.282;2024-01-10T13:00:57;-1.20;99.90
51825;DHT22;37879;52.986;6.282;2024-01-10T13:03:24;-1.20;99.90
51825;DHT22;37879;52.986;6.282;2024-01-10T13:05:53;-1.30;99.90
51825;DHT22;37879;52.986;6.282;2024-01-10T13:08:19;-0.80;99.90
51825;DHT22;37879;52.986;6.282;2024-01-10T13:10:45;-0.60;99.90
51825;DHT22;37879;52.986;6.282;2024-01-10T13:13:13;1.20;99.90
51825;DHT22;37879;52.986;6.282;2024-01-10T13:15:39;-1.10;99.90
51825;DHT22;37879;52.986;6.282;2024-01-10T13:18:05;-0.80;99.90
51825;DHT22;37879;52.986;6.282;2024-01-10T13:20:32;-1.00;99.90
51825;DHT22;37879;52.986;6.282;2024-01-10T13:22:58;-1.00;99.90
51825;DHT22;37879;52.986;6.282;2024-01-10T13:25:23;-0.70;99.90
51825;DHT22;37879;52.986;6.282;2024-01-10T13:27:50;0.70;99.90
51825;DHT22;37879;52.986;6.282;2024-01-10T13:30:16;-0.90;99.90
51825;DHT22;37879;52.986;6.282;2024-01-10T13:32:43;-0.90;99.90
51825;DHT22;37879;52.986;6.282;2024-01-10T13:35:09;-0.90;99.90
51825;DHT22;37879;52.986;6.282;2024-01-10T13:37:35;-0.90;99.90
51825;DHT22;37879;52.986;6.282;2024-01-10T13:40:01;-1.00;99.90
51825;DHT22;37879;52.986;6.282;2024-01-10T13:42:31;0.40;99.90
51825;DHT22;37879;52.986;6.282;2024-01-10T13:44:58;-0.80;99.90
51825;DHT22;37879;52.986;6.282;2024-01-10T13:47:24;-0.40;99.90
51825;DHT22;37879;52.986;6.282;2024-01-10T13:49:49;-0.80;99.90
51825;DHT22;37879;52.986;6.282;2024-01-10T13:52:15;-0.70;99.90
51825;DHT22;37879;52.986;6.282;2024-01-10T13:54:41;-0.80;99.90
51825;DHT22;37879;52.986;6.282;2024-01-10T13:57:08;-0.80;99.90
51825;DHT22;37879;52.986;6.282;2024-01-10T13:59:33;-0.80;99.90
51825;DHT22;37879;52.986;6.282;2024-01-10T14:01:59;-0.80;99.90
51825;DHT22;37879;52.986;6.282;2024-01-10T14:04:25;-0.50;99.90
51825;DHT22;37879;52.986;6.282;2024-01-10T14:06:51;-0.60;99.90
51825;DHT22;37879;52.986;6.282;2024-01-10T14:09:17;-0.60;99.90
51825;DHT22;37879;52.986;6.282;2024-01-10T14:11:43;-0.60;99.90
51825;DHT22;37879;52.986;6.282;2024-01-10T14:14:16;-0.70;99.90
51825;DHT22;37879;52.986;6.282;2024-01-10T14:16:42;-0.60;99.90
51825;DHT22;37879;52.986;6.282;2024-01-10T14:19:07;-0.70;99.90
51825;DHT22;37879;52.986;6.282;2024-01-10T14:21:33;-0.40;99.90
51825;DHT22;37879;52.986;6.282;2024-01-10T14:23:59;-0.20;99.90
51825;DHT22;37879;52.986;6.282;2024-01-10T14:26:25;-0.60;99.90
51825;DHT22;37879;52.986;6.282;2024-01-10T14:28:52;0.80;99.90
51825;DHT22;37879;52.986;6.282;2024-01-10T14:31:22;-0.70;99.90
51825;DHT22;37879;52.986;6.282;2024-01-10T14:33:48;-0.70;99.90
51825;DHT22;37879;52.986;6.282;2024-01-10T14:36:14;0.10;99.90
51825;DHT22;37879;52.986;6.282;2024-01-10T14:38:40;-0.90;99.90
51825;DHT22;37879;52.986;6.282;2024-01-10T14:41:09;-0.50;99.90
51825;DHT22;37879;52.986;6.282;2024-01-10T14:43:38;-0.80;99.90
51825;DHT22;37879;52.986;6.282;2024-01-10T14:46:04;-0.90;99.90
51825;DHT22;37879;52.986;6.282;2024-01-10T14:48:34;0.00;99.90
51825;DHT22;37879;52.986;6.282;2024-01-10T14:51:00;-0.20;99.90
51825;DHT22;37879;52.986;6.282;2024-01-10T14:53:26;-1.20;99.90
51825;DHT22;37879;52.986;6.282;2024-01-10T14:55:52;-0.60;99.90
51825;DHT22;37879;52.986;6.282;2024-01-10T14:58:18;-1.10;99.90
51825;DHT22;37879;52.986;6.282;2024-01-10T15:00:45;-1.20;99.90
51825;DHT22;37879;52.986;6.282;2024-01-10T15:03:10;-0.50;99.90
51825;DHT22;37879;52.986;6.282;2024-01-10T15:05:36;-1.10;99.90
51825;DHT22;37879;52.986;6.282;2024-01-10T15:08:03;-1.20;99.90
51825;DHT22;37879;52.986;6.282;2024-01-10T15:10:33;0.00;99.90
51825;DHT22;37879;52.986;6.282;2024-01-10T15:12:59;-1.40;99.90
51825;DHT22;37879;52.986;6.282;2024-01-10T15:15:24;-1.40;99.90
51825;DHT22;37879;52.986;6.282;2024-01-10T15:17:50;-1.60;99.90
51825;DHT22;37879;52.986;6.282;2024-01-10T15:20:16;-1.70;99.90
51825;DHT22;37879;52.986;6.282;2024-01-10T15:22:41;-1.60;99.90
51825;DHT22;37879;52.986;6.282;2024-01-10T15:25:07;-1.60;99.90
51825;DHT22;37879;52.986;6.282;2024-01-10T15:27:33;-1.70;99.90
51825;DHT22;37879;52.986;6.282;2024-01-10T15:29:59;-0.70;99.90
51825;DHT22;37879;52.986;6.282;2024-01-10T15:32:25;-1.80;99.90
51825;DHT22;37879;52.986;6.282;2024-01-10T15:34:51;-1.90;99.90
51825;DHT22;37879;52.986;6.282;2024-01-10T15:37:17;-1.90;99.90
51825;DHT22;37879;52.986;6.282;2024-01-10T15:39:43;-1.20;99.90
51825;DHT22;37879;52.986;6.282;2024-01-10T15:42:08;-1.20;99.90
51825;DHT22;37879;52.986;6.282;2024-01-10T15:44:42;-2.10;99.90
51825;DHT22;37879;52.986;6.282;2024-01-10T15:47:09;-0.90;99.90
51825;DHT22;37879;52.986;6.282;2024-01-10T15:49:35;-2.30;99.90
51825;DHT22;37879;52.986;6.282;2024-01-10T15:52:01;-1.60;99.90
51825;DHT22;37879;52.986;6.282;2024-01-10T15:54:27;-1.90;99.90
51825;DHT22;37879;52.986;6.282;2024-01-10T15:56:53;-2.60;99.90
51825;DHT22;37879;52.986;6.282;2024-01-10T15:59:19;-2.20;99.90
51825;DHT22;37879;52.986;6.282;2024-01-10T16:01:45;-2.10;99.90